createdAt,value
2022-12-23T11:28:19.600Z,11.20
2022-12-23T11:31:11.932Z,11.63
2022-12-23T11:33:41.300Z,11.77
2022-12-23T11:36:13.843Z,12.77
2022-12-23T11:39:01.891Z,12.20
2022-12-23T11:41:34.084Z,12.93
2022-12-23T11:44:06.188Z,13.30
2022-12-23T11:46:34.624Z,13.20
2022-12-23T11:49:22.973Z,13.40
2022-12-23T11:52:13.860Z,12.30
2022-12-23T11:54:40.586Z,13.70
2022-12-23T11:57:15.403Z,13.73
2022-12-23T11:59:50.111Z,15.47
2022-12-23T12:02:30.481Z,15.83
2022-12-23T12:05:18.516Z,14.10
2022-12-23T12:07:45.441Z,13.17
2022-12-23T12:10:32.375Z,14.20
2022-12-23T12:13:06.772Z,13.33
2022-12-23T12:15:42.845Z,12.53
2022-12-23T12:18:12.368Z,14.00
2022-12-23T12:20:45.817Z,13.77
2022-12-23T12:23:29.034Z,13.57
2022-12-23T12:26:00.328Z,12.10
2022-12-23T12:28:45.764Z,12.67
2022-12-23T12:31:23.490Z,13.27
2022-12-23T12:36:53.385Z,14.03
2022-12-23T12:39:25.228Z,14.47
2022-12-23T12:42:05.352Z,14.03
2022-12-23T12:44:51.219Z,13.13
2022-12-23T12:47:53.287Z,15.87
2022-12-23T12:50:27.975Z,30.20
2022-12-23T12:52:56.998Z,16.57
2022-12-23T12:55:26.899Z,22.83
2022-12-23T12:57:55.129Z,14.53
2022-12-23T13:00:24.069Z,15.47
2022-12-23T13:02:52.253Z,13.80
2022-12-23T13:05:45.952Z,13.97
2022-12-23T13:08:15.087Z,14.77
2022-12-23T13:10:56.920Z,15.93
2022-12-23T13:13:36.012Z,14.47
2022-12-23T13:16:23.595Z,13.07
2022-12-23T13:19:27.628Z,13.77
2022-12-23T13:22:01.131Z,13.33
2022-12-23T13:24:45.860Z,13.40
2022-12-23T13:27:30.222Z,12.87
2022-12-23T13:30:06.000Z,11.97
2022-12-23T13:33:01.900Z,12.10
2022-12-23T13:35:37.223Z,11.30
2022-12-23T13:38:25.663Z,10.73
2022-12-23T13:40:59.089Z,11.10
2022-12-23T13:43:33.868Z,10.77
2022-12-23T13:46:01.768Z,10.47
2022-12-23T13:48:52.539Z,10.47
2022-12-23T13:51:47.635Z,9.93
2022-12-23T13:54:17.514Z,10.70
2022-12-23T13:57:08.070Z,10.70
2022-12-23T13:59:43.323Z,10.80
2022-12-23T14:02:36.130Z,13.63
2022-12-23T14:05:16.405Z,11.90
2022-12-23T14:07:44.387Z,15.90
2022-12-23T14:10:13.081Z,15.03
2022-12-23T14:12:40.647Z,14.27
2022-12-23T14:15:31.702Z,13.40
2022-12-23T14:18:20.815Z,14.03
2022-12-23T14:21:18.354Z,19.50
2022-12-23T14:24:03.983Z,14.57
2022-12-23T14:26:42.668Z,12.80
2022-12-23T14:29:43.624Z,15.50
2022-12-23T14:32:31.184Z,15.07
2022-12-23T14:35:17.464Z,16.63
2022-12-23T14:38:05.441Z,17.97
2022-12-23T14:40:39.330Z,26.07
2022-12-23T14:43:27.698Z,16.73
2022-12-23T14:45:59.702Z,13.53
2022-12-23T14:48:59.497Z,14.00
2022-12-23T14:51:39.209Z,15.23
2022-12-23T14:54:08.656Z,15.47
2022-12-23T14:56:42.018Z,24.27
2022-12-23T14:59:23.704Z,17.07
2022-12-23T15:01:59.229Z,13.40
2022-12-23T15:04:46.264Z,16.93
2022-12-23T15:07:26.379Z,12.77
2022-12-23T15:10:00.785Z,13.37
2022-12-23T15:12:35.484Z,13.67
2022-12-23T15:15:06.467Z,13.23
2022-12-23T15:17:37.008Z,13.03
2022-12-23T15:20:20.016Z,14.37
2022-12-23T15:22:47.539Z,13.93
2022-12-23T15:25:33.505Z,16.13
2022-12-23T15:28:02.606Z,15.30
2022-12-23T15:30:34.468Z,13.70
2022-12-23T15:33:28.263Z,13.33
2022-12-23T15:35:55.499Z,13.60
2022-12-23T15:38:25.855Z,14.60
2022-12-23T15:41:04.596Z,14.20
2022-12-23T15:43:31.295Z,14.47
2022-12-23T15:46:30.604Z,13.60
2022-12-23T15:48:58.111Z,13.73
2022-12-23T15:51:58.215Z,15.30
2022-12-23T15:54:24.752Z,14.97
2022-12-23T15:56:53.396Z,16.33
2022-12-23T15:59:36.618Z,21.57
2022-12-23T16:02:49.690Z,20.83
2022-12-23T16:05:02.976Z,19.07
2022-12-23T16:07:42.086Z,15.37
2022-12-23T16:10:16.556Z,14.67
2022-12-23T16:12:43.754Z,16.33
2022-12-23T16:15:39.721Z,17.37
2022-12-23T16:18:25.869Z,23.50
2022-12-23T16:20:57.905Z,28.53
2022-12-23T16:23:29.572Z,19.27
2022-12-23T16:25:58.922Z,15.90
2022-12-23T16:28:35.698Z,15.73
2022-12-23T16:31:06.205Z,15.13
2022-12-23T16:33:39.794Z,14.67
2022-12-23T16:36:25.029Z,16.10
2022-12-23T16:39:15.125Z,15.83
2022-12-23T16:41:41.833Z,16.33
2022-12-23T16:44:09.497Z,17.93
2022-12-23T16:46:45.163Z,17.80
2022-12-23T16:49:17.526Z,16.77
2022-12-23T16:51:44.890Z,16.23
2022-12-23T16:54:16.618Z,17.17
2022-12-23T16:56:44.309Z,30.87
2022-12-23T16:59:10.903Z,20.73
2022-12-23T17:01:39.963Z,17.17
2022-12-23T17:04:07.275Z,19.80
2022-12-23T17:06:35.776Z,16.70
2022-12-23T17:09:03.558Z,16.40
2022-12-23T17:11:40.565Z,16.23
2022-12-23T17:14:15.274Z,17.60
2022-12-23T17:16:42.581Z,17.13
2022-12-23T17:19:09.344Z,17.57
2022-12-23T17:21:39.620Z,17.00
2022-12-23T17:24:17.448Z,16.10
2022-12-23T17:26:44.113Z,16.17
2022-12-23T17:29:12.147Z,17.23
2022-12-23T17:31:40.758Z,16.77
2022-12-23T17:34:11.764Z,17.13
2022-12-23T17:36:41.034Z,16.17
2022-12-23T17:39:11.168Z,15.93
2022-12-23T17:41:39.359Z,15.47
2022-12-23T17:44:06.960Z,15.43
2022-12-23T17:46:34.007Z,16.13
2022-12-23T17:49:00.776Z,15.47
2022-12-23T17:51:27.542Z,15.20
2022-12-23T17:53:58.063Z,15.77
2022-12-23T17:56:27.956Z,15.50
2022-12-23T17:58:54.877Z,17.27
2022-12-23T18:01:28.247Z,16.97
2022-12-23T18:03:55.897Z,20.80
2022-12-23T18:06:23.760Z,24.63
2022-12-23T18:08:50.554Z,26.17
2022-12-23T18:11:21.806Z,24.43
2022-12-23T18:13:50.738Z,21.50
2022-12-23T18:16:17.472Z,22.17
2022-12-23T18:18:46.959Z,21.03
2022-12-23T18:21:24.133Z,20.27
2022-12-23T18:23:52.315Z,23.25
2022-12-23T18:26:18.916Z,21.03
2022-12-23T18:28:45.577Z,21.83
2022-12-23T18:31:16.635Z,21.33
2022-12-23T18:33:43.451Z,21.70
2022-12-23T18:36:21.113Z,22.17
2022-12-23T18:38:47.929Z,21.73
2022-12-23T18:41:14.817Z,20.93
2022-12-23T18:43:41.723Z,19.73
2022-12-23T18:46:08.411Z,18.70
2022-12-23T18:48:35.140Z,18.53
2022-12-23T18:51:01.791Z,19.40
2022-12-23T18:53:28.897Z,19.00
2022-12-23T18:55:55.639Z,18.10
2022-12-23T18:58:23.075Z,17.43
2022-12-23T19:00:51.186Z,17.63
2022-12-23T19:03:26.490Z,18.47
2022-12-23T19:05:54.314Z,20.57
2022-12-23T19:08:26.352Z,21.70
2022-12-23T19:10:54.733Z,19.07
2022-12-23T19:13:21.443Z,20.20
2022-12-23T19:15:48.159Z,19.57
2022-12-23T19:18:17.394Z,18.83
2022-12-23T19:20:45.472Z,17.33
2022-12-23T19:23:12.507Z,17.33
2022-12-23T19:25:49.265Z,17.17
2022-12-23T19:28:23.730Z,16.73
2022-12-23T19:30:50.581Z,17.80
2022-12-23T19:33:17.303Z,17.13
2022-12-23T19:35:44.506Z,17.20
2022-12-23T19:38:12.347Z,17.47
2022-12-23T19:40:39.341Z,17.83
2022-12-23T19:43:05.982Z,16.07
2022-12-23T19:45:32.726Z,15.60
2022-12-23T19:47:59.371Z,16.50
2022-12-23T19:50:27.213Z,15.83
2022-12-23T19:52:54.806Z,15.17
2022-12-23T19:55:21.511Z,14.07
2022-12-23T19:57:48.171Z,15.07
2022-12-23T20:00:16.030Z,14.27
2022-12-23T20:02:43.550Z,13.73
2022-12-23T20:05:10.352Z,13.57
2022-12-23T20:07:37.472Z,13.90
2022-12-23T20:10:05.407Z,11.43
2022-12-23T20:12:32.116Z,11.50
2022-12-23T20:14:59.267Z,11.47
2022-12-23T20:17:27.040Z,11.70
2022-12-23T20:19:53.724Z,11.23
2022-12-23T20:22:20.354Z,11.37
2022-12-23T20:24:47.042Z,11.10
2022-12-23T20:27:15.906Z,10.80
2022-12-23T20:29:42.887Z,11.10
2022-12-23T20:32:09.509Z,11.50
2022-12-23T20:34:39.465Z,12.63
2022-12-23T20:37:06.894Z,12.47
2022-12-23T20:39:33.556Z,13.27
2022-12-23T20:42:00.249Z,13.80
2022-12-23T20:44:36.182Z,14.53
2022-12-23T20:47:05.572Z,15.67
2022-12-23T20:49:32.471Z,16.20
2022-12-23T20:51:59.253Z,15.70
2022-12-23T20:54:32.274Z,16.37
2022-12-23T20:57:00.437Z,17.67
2022-12-23T20:59:27.038Z,17.43
2022-12-23T21:01:53.810Z,17.20
2022-12-23T21:04:21.068Z,16.80
2022-12-23T21:06:47.855Z,17.70
2022-12-23T21:09:15.721Z,16.67
2022-12-23T21:11:44.228Z,17.73
2022-12-23T21:14:11.671Z,17.67
2022-12-23T21:16:38.692Z,17.73
2022-12-23T21:19:07.642Z,17.00
2022-12-23T21:21:34.715Z,15.27
2022-12-23T21:24:04.552Z,16.80
2022-12-23T21:26:33.015Z,17.07
2022-12-23T21:29:00.834Z,17.77
2022-12-23T21:31:28.872Z,16.30
2022-12-23T21:33:56.001Z,16.80
2022-12-23T21:36:25.067Z,17.10
2022-12-23T21:38:52.348Z,16.00
2022-12-23T21:41:25.439Z,15.53
2022-12-23T21:43:52.179Z,16.53
2022-12-23T21:46:21.018Z,15.57
2022-12-23T21:48:48.802Z,16.60
2022-12-23T21:51:30.351Z,15.27
2022-12-23T21:54:01.727Z,16.07
2022-12-23T21:56:30.596Z,16.17
2022-12-23T21:58:59.034Z,15.87
2022-12-23T22:01:26.050Z,15.63
2022-12-23T22:03:53.365Z,15.60
2022-12-23T22:06:23.937Z,17.10
2022-12-23T22:08:54.058Z,18.80
2022-12-23T22:11:23.520Z,19.83
2022-12-23T22:13:50.447Z,17.67
2022-12-23T22:16:22.678Z,17.57
2022-12-23T22:18:50.800Z,16.00
2022-12-23T22:21:20.268Z,16.10
2022-12-23T22:23:50.932Z,16.57
2022-12-23T22:26:25.489Z,15.50
2022-12-23T22:29:01.957Z,15.90
2022-12-23T22:31:40.989Z,15.67
2022-12-23T22:34:15.067Z,15.43
2022-12-23T22:36:46.277Z,15.67
2022-12-23T22:39:24.785Z,16.03
2022-12-23T22:41:52.732Z,15.87
2022-12-23T22:44:23.575Z,15.87
2022-12-23T22:46:51.396Z,15.43
2022-12-23T22:49:19.350Z,17.20
2022-12-23T22:51:50.066Z,17.03
2022-12-23T22:54:19.973Z,18.17
2022-12-23T22:56:48.734Z,17.93
2022-12-23T22:59:24.211Z,17.23
2022-12-23T23:02:00.806Z,16.77
2022-12-23T23:04:30.226Z,16.00
2022-12-23T23:06:57.827Z,16.00
2022-12-23T23:09:26.454Z,15.83
2022-12-23T23:11:57.032Z,15.43
2022-12-23T23:14:26.498Z,15.80
2022-12-23T23:16:55.416Z,15.50
2022-12-23T23:19:25.198Z,15.77
2022-12-23T23:21:55.874Z,16.07
2022-12-23T23:24:26.407Z,14.47
2022-12-23T23:26:57.792Z,14.17
2022-12-23T23:29:24.498Z,14.43
2022-12-23T23:31:51.218Z,14.07
2022-12-23T23:34:17.931Z,14.17
2022-12-23T23:36:44.808Z,13.97
2022-12-23T23:39:12.533Z,14.07
2022-12-23T23:41:42.338Z,15.10
2022-12-23T23:44:09.341Z,13.77
2022-12-23T23:46:37.418Z,12.47
2022-12-23T23:49:07.561Z,13.90
2022-12-23T23:51:34.345Z,13.53
2022-12-23T23:54:03.284Z,13.63
2022-12-23T23:56:37.595Z,12.20
2022-12-23T23:59:06.767Z,12.87
